sensor_id;sensor_type;location;lat;lon;timestamp;P1;durP1;ratioP1;P2;durP2;ratioP2
46216;SDS011;47258;59.424;13.482;2022-07-17T00:01:35;0.35;;;0.20;;
46216;SDS011;47258;59.424;13.482;2022-07-17T00:04:02;2.55;;;0.30;;
46216;SDS011;47258;59.424;13.482;2022-07-17T00:06:29;1.67;;;0.20;;
46216;SDS011;47258;59.424;13.482;2022-07-17T00:08:57;0.70;;;0.30;;
46216;SDS011;47258;59.424;13.482;2022-07-17T00:11:24;0.30;;;0.30;;
46216;SDS011;47258;59.424;13.482;2022-07-17T00:13:51;0.65;;;0.30;;
46216;SDS011;47258;59.424;13.482;2022-07-17T00:16:19;0.52;;;0.30;;
46216;SDS011;47258;59.424;13.482;2022-07-17T00:18:47;0.90;;;0.43;;
46216;SDS011;47258;59.424;13.482;2022-07-17T00:21:14;0.40;;;0.40;;
46216;SDS011;47258;59.424;13.482;2022-07-17T00:23:41;0.40;;;0.40;;
46216;SDS011;47258;59.424;13.482;2022-07-17T00:26:09;0.20;;;0.20;;
46216;SDS011;47258;59.424;13.482;2022-07-17T00:28:36;0.70;;;0.35;;
46216;SDS011;47258;59.424;13.482;2022-07-17T00:31:03;0.35;;;0.35;;
46216;SDS011;47258;59.424;13.482;2022-07-17T00:33:30;1.85;;;0.60;;
46216;SDS011;47258;59.424;13.482;2022-07-17T00:35:57;1.92;;;0.30;;
46216;SDS011;47258;59.424;13.482;2022-07-17T00:38:25;0.43;;;0.40;;
46216;SDS011;47258;59.424;13.482;2022-07-17T00:40:53;0.40;;;0.28;;
46216;SDS011;47258;59.424;13.482;2022-07-17T00:43:22;0.38;;;0.30;;
46216;SDS011;47258;59.424;13.482;2022-07-17T00:45:57;4.82;;;0.50;;
46216;SDS011;47258;59.424;13.482;2022-07-17T00:48:25;0.20;;;0.20;;
46216;SDS011;47258;59.424;13.482;2022-07-17T00:50:53;1.10;;;0.50;;
46216;SDS011;47258;59.424;13.482;2022-07-17T00:53:20;0.10;;;0.10;;
46216;SDS011;47258;59.424;13.482;2022-07-17T00:55:48;0.30;;;0.30;;
46216;SDS011;47258;59.424;13.482;2022-07-17T00:58:20;0.93;;;0.15;;
46216;SDS011;47258;59.424;13.482;2022-07-17T01:00:52;0.63;;;0.30;;
46216;SDS011;47258;59.424;13.482;2022-07-17T01:03:20;1.45;;;0.40;;
46216;SDS011;47258;59.424;13.482;2022-07-17T01:05:51;0.28;;;0.28;;
46216;SDS011;47258;59.424;13.482;2022-07-17T01:08:18;0.65;;;0.30;;
46216;SDS011;47258;59.424;13.482;2022-07-17T01:10:45;0.60;;;0.20;;
46216;SDS011;47258;59.424;13.482;2022-07-17T01:13:12;0.57;;;0.20;;
46216;SDS011;47258;59.424;13.482;2022-07-17T01:15:40;0.32;;;0.32;;
46216;SDS011;47258;59.424;13.482;2022-07-17T01:18:09;2.28;;;0.55;;
46216;SDS011;47258;59.424;13.482;2022-07-17T01:20:38;0.68;;;0.40;;
46216;SDS011;47258;59.424;13.482;2022-07-17T01:23:08;0.88;;;0.25;;
46216;SDS011;47258;59.424;13.482;2022-07-17T01:25:36;0.65;;;0.38;;
46216;SDS011;47258;59.424;13.482;2022-07-17T01:28:03;1.55;;;0.30;;
46216;SDS011;47258;59.424;13.482;2022-07-17T01:30:31;0.95;;;0.40;;
46216;SDS011;47258;59.424;13.482;2022-07-17T01:32:59;3.65;;;0.57;;
46216;SDS011;47258;59.424;13.482;2022-07-17T01:35:26;1.98;;;0.30;;
46216;SDS011;47258;59.424;13.482;2022-07-17T01:37:53;0.40;;;0.38;;
46216;SDS011;47258;59.424;13.482;2022-07-17T01:40:22;0.20;;;0.20;;
46216;SDS011;47258;59.424;13.482;2022-07-17T01:42:49;0.35;;;0.35;;
46216;SDS011;47258;59.424;13.482;2022-07-17T01:45:17;0.10;;;0.10;;
46216;SDS011;47258;59.424;13.482;2022-07-17T01:47:45;0.60;;;0.38;;
46216;SDS011;47258;59.424;13.482;2022-07-17T01:50:12;0.20;;;0.20;;
46216;SDS011;47258;59.424;13.482;2022-07-17T01:52:41;2.60;;;0.73;;
46216;SDS011;47258;59.424;13.482;2022-07-17T01:55:09;0.70;;;0.28;;
46216;SDS011;47258;59.424;13.482;2022-07-17T01:57:39;1.07;;;0.50;;
46216;SDS011;47258;59.424;13.482;2022-07-17T02:00:08;0.32;;;0.32;;
46216;SDS011;47258;59.424;13.482;2022-07-17T02:02:36;0.95;;;0.35;;
46216;SDS011;47258;59.424;13.482;2022-07-17T02:05:04;1.60;;;0.60;;
46216;SDS011;47258;59.424;13.482;2022-07-17T02:07:31;0.50;;;0.40;;
46216;SDS011;47258;59.424;13.482;2022-07-17T02:09:58;1.13;;;0.30;;
46216;SDS011;47258;59.424;13.482;2022-07-17T02:12:25;0.20;;;0.20;;
46216;SDS011;47258;59.424;13.482;2022-07-17T02:14:54;2.42;;;0.30;;
46216;SDS011;47258;59.424;13.482;2022-07-17T02:17:21;0.75;;;0.60;;
46216;SDS011;47258;59.424;13.482;2022-07-17T02:19:48;13.75;;;0.82;;
46216;SDS011;47258;59.424;13.482;2022-07-17T02:22:15;0.32;;;0.32;;
46216;SDS011;47258;59.424;13.482;2022-07-17T02:24:42;2.30;;;0.32;;
46216;SDS011;47258;59.424;13.482;2022-07-17T02:27:09;0.98;;;0.70;;
46216;SDS011;47258;59.424;13.482;2022-07-17T02:29:36;0.75;;;0.30;;
46216;SDS011;47258;59.424;13.482;2022-07-17T02:32:04;0.20;;;0.20;;
46216;SDS011;47258;59.424;13.482;2022-07-17T02:34:32;0.35;;;0.35;;
46216;SDS011;47258;59.424;13.482;2022-07-17T02:36:58;0.68;;;0.30;;
46216;SDS011;47258;59.424;13.482;2022-07-17T02:39:25;0.38;;;0.38;;
46216;SDS011;47258;59.424;13.482;2022-07-17T02:41:52;0.28;;;0.28;;
46216;SDS011;47258;59.424;13.482;2022-07-17T02:44:19;0.45;;;0.30;;
46216;SDS011;47258;59.424;13.482;2022-07-17T02:46:46;0.65;;;0.30;;
46216;SDS011;47258;59.424;13.482;2022-07-17T02:49:15;2.58;;;1.63;;
46216;SDS011;47258;59.424;13.482;2022-07-17T02:51:42;2.28;;;0.38;;
46216;SDS011;47258;59.424;13.482;2022-07-17T02:54:09;1.55;;;0.30;;
46216;SDS011;47258;59.424;13.482;2022-07-17T02:56:36;0.43;;;0.40;;
46216;SDS011;47258;59.424;13.482;2022-07-17T02:59:02;0.43;;;0.43;;
46216;SDS011;47258;59.424;13.482;2022-07-17T03:01:30;2.20;;;0.55;;
46216;SDS011;47258;59.424;13.482;2022-07-17T03:03:56;0.20;;;0.20;;
46216;SDS011;47258;59.424;13.482;2022-07-17T03:06:25;0.70;;;0.70;;
46216;SDS011;47258;59.424;13.482;2022-07-17T03:08:52;0.30;;;0.30;;
46216;SDS011;47258;59.424;13.482;2022-07-17T03:11:19;0.30;;;0.30;;
46216;SDS011;47258;59.424;13.482;2022-07-17T03:13:46;0.55;;;0.30;;
46216;SDS011;47258;59.424;13.482;2022-07-17T03:16:13;0.20;;;0.20;;
46216;SDS011;47258;59.424;13.482;2022-07-17T03:18:39;0.28;;;0.20;;
46216;SDS011;47258;59.424;13.482;2022-07-17T03:21:06;0.70;;;0.45;;
46216;SDS011;47258;59.424;13.482;2022-07-17T03:23:35;1.48;;;0.60;;
46216;SDS011;47258;59.424;13.482;2022-07-17T03:26:02;1.75;;;0.25;;
46216;SDS011;47258;59.424;13.482;2022-07-17T03:28:29;0.40;;;0.40;;
46216;SDS011;47258;59.424;13.482;2022-07-17T03:30:56;1.58;;;1.38;;
46216;SDS011;47258;59.424;13.482;2022-07-17T03:33:23;0.20;;;0.20;;
46216;SDS011;47258;59.424;13.482;2022-07-17T03:35:49;2.05;;;0.50;;
46216;SDS011;47258;59.424;13.482;2022-07-17T03:38:16;0.30;;;0.30;;
46216;SDS011;47258;59.424;13.482;2022-07-17T03:40:45;0.50;;;0.20;;
46216;SDS011;47258;59.424;13.482;2022-07-17T03:43:12;0.28;;;0.28;;
46216;SDS011;47258;59.424;13.482;2022-07-17T03:45:39;1.40;;;0.43;;
46216;SDS011;47258;59.424;13.482;2022-07-17T03:48:06;1.20;;;0.40;;
46216;SDS011;47258;59.424;13.482;2022-07-17T03:50:34;1.98;;;0.30;;
46216;SDS011;47258;59.424;13.482;2022-07-17T03:53:01;1.35;;;0.30;;
46216;SDS011;47258;59.424;13.482;2022-07-17T03:55:28;1.95;;;0.40;;
46216;SDS011;47258;59.424;13.482;2022-07-17T03:57:56;0.17;;;0.17;;
46216;SDS011;47258;59.424;13.482;2022-07-17T04:00:23;0.35;;;0.35;;
46216;SDS011;47258;59.424;13.482;2022-07-17T04:02:50;0.60;;;0.38;;
46216;SDS011;47258;59.424;13.482;2022-07-17T04:05:17;0.32;;;0.32;;
46216;SDS011;47258;59.424;13.482;2022-07-17T04:07:44;0.30;;;0.30;;
46216;SDS011;47258;59.424;13.482;2022-07-17T04:10:12;0.20;;;0.20;;
46216;SDS011;47258;59.424;13.482;2022-07-17T04:12:40;0.30;;;0.30;;
46216;SDS011;47258;59.424;13.482;2022-07-17T04:15:09;1.10;;;0.28;;
46216;SDS011;47258;59.424;13.482;2022-07-17T04:17:36;0.52;;;0.30;;
46216;SDS011;47258;59.424;13.482;2022-07-17T04:20:04;0.40;;;0.40;;
46216;SDS011;47258;59.424;13.482;2022-07-17T04:22:31;0.20;;;0.20;;
46216;SDS011;47258;59.424;13.482;2022-07-17T04:24:58;0.80;;;0.40;;
46216;SDS011;47258;59.424;13.482;2022-07-17T04:27:25;0.80;;;0.55;;
46216;SDS011;47258;59.424;13.482;2022-07-17T04:29:52;3.40;;;0.22;;
46216;SDS011;47258;59.424;13.482;2022-07-17T04:32:20;0.30;;;0.30;;
46216;SDS011;47258;59.424;13.482;2022-07-17T04:34:47;0.38;;;0.30;;
46216;SDS011;47258;59.424;13.482;2022-07-17T04:37:14;4.10;;;0.50;;
46216;SDS011;47258;59.424;13.482;2022-07-17T04:39:41;0.70;;;0.47;;
46216;SDS011;47258;59.424;13.482;2022-07-17T04:42:08;0.30;;;0.30;;
46216;SDS011;47258;59.424;13.482;2022-07-17T04:44:35;0.40;;;0.40;;
46216;SDS011;47258;59.424;13.482;2022-07-17T04:47:02;2.30;;;0.57;;
46216;SDS011;47258;59.424;13.482;2022-07-17T04:49:30;0.88;;;0.32;;
46216;SDS011;47258;59.424;13.482;2022-07-17T04:51:57;0.40;;;0.40;;
46216;SDS011;47258;59.424;13.482;2022-07-17T04:54:24;4.05;;;0.85;;
46216;SDS011;47258;59.424;13.482;2022-07-17T04:56:51;1.48;;;0.30;;
46216;SDS011;47258;59.424;13.482;2022-07-17T04:59:18;0.30;;;0.30;;
46216;SDS011;47258;59.424;13.482;2022-07-17T05:01:45;0.20;;;0.20;;
46216;SDS011;47258;59.424;13.482;2022-07-17T05:04:12;2.92;;;0.30;;
46216;SDS011;47258;59.424;13.482;2022-07-17T05:06:41;0.63;;;0.32;;
46216;SDS011;47258;59.424;13.482;2022-07-17T05:09:08;0.30;;;0.30;;
46216;SDS011;47258;59.424;13.482;2022-07-17T05:11:35;6.65;;;0.50;;
46216;SDS011;47258;59.424;13.482;2022-07-17T05:14:02;0.95;;;0.52;;
46216;SDS011;47258;59.424;13.482;2022-07-17T05:16:29;0.40;;;0.40;;
46216;SDS011;47258;59.424;13.482;2022-07-17T05:18:56;0.82;;;0.20;;
46216;SDS011;47258;59.424;13.482;2022-07-17T05:21:23;0.30;;;0.30;;
46216;SDS011;47258;59.424;13.482;2022-07-17T05:23:52;0.50;;;0.38;;
46216;SDS011;47258;59.424;13.482;2022-07-17T05:26:19;1.23;;;0.30;;
46216;SDS011;47258;59.424;13.482;2022-07-17T05:28:46;1.85;;;0.35;;
46216;SDS011;47258;59.424;13.482;2022-07-17T05:31:13;1.05;;;0.30;;
46216;SDS011;47258;59.424;13.482;2022-07-17T05:33:39;0.20;;;0.20;;
46216;SDS011;47258;59.424;13.482;2022-07-17T05:36:06;0.15;;;0.15;;
46216;SDS011;47258;59.424;13.482;2022-07-17T05:38:34;0.82;;;0.30;;
46216;SDS011;47258;59.424;13.482;2022-07-17T05:41:02;0.20;;;0.20;;
46216;SDS011;47258;59.424;13.482;2022-07-17T05:43:29;0.97;;;0.13;;
46216;SDS011;47258;59.424;13.482;2022-07-17T05:45:57;0.20;;;0.20;;
46216;SDS011;47258;59.424;13.482;2022-07-17T05:48:24;1.40;;;0.30;;
46216;SDS011;47258;59.424;13.482;2022-07-17T05:50:51;1.27;;;0.20;;
46216;SDS011;47258;59.424;13.482;2022-07-17T05:53:19;0.57;;;0.30;;
46216;SDS011;47258;59.424;13.482;2022-07-17T05:55:46;1.10;;;0.20;;
46216;SDS011;47258;59.424;13.482;2022-07-17T05:58:14;2.22;;;0.20;;
46216;SDS011;47258;59.424;13.482;2022-07-17T06:00:42;0.20;;;0.20;;
46216;SDS011;47258;59.424;13.482;2022-07-17T06:03:10;0.20;;;0.20;;
46216;SDS011;47258;59.424;13.482;2022-07-17T06:05:37;0.38;;;0.20;;
46216;SDS011;47258;59.424;13.482;2022-07-17T06:08:04;0.25;;;0.10;;
46216;SDS011;47258;59.424;13.482;2022-07-17T06:10:31;0.20;;;0.20;;
46216;SDS011;47258;59.424;13.482;2022-07-17T06:12:58;1.75;;;0.28;;
46216;SDS011;47258;59.424;13.482;2022-07-17T06:15:27;0.20;;;0.20;;
46216;SDS011;47258;59.424;13.482;2022-07-17T06:17:54;0.73;;;0.13;;
46216;SDS011;47258;59.424;13.482;2022-07-17T06:20:21;0.15;;;0.15;;
46216;SDS011;47258;59.424;13.482;2022-07-17T06:22:48;0.00;;;0.00;;
46216;SDS011;47258;59.424;13.482;2022-07-17T06:25:15;0.00;;;0.00;;
46216;SDS011;47258;59.424;13.482;2022-07-17T06:27:42;0.00;;;0.00;;
46216;SDS011;47258;59.424;13.482;2022-07-17T06:30:09;0.93;;;0.10;;
46216;SDS011;47258;59.424;13.482;2022-07-17T06:32:39;1.35;;;0.03;;
46216;SDS011;47258;59.424;13.482;2022-07-17T06:35:07;0.10;;;0.10;;
46216;SDS011;47258;59.424;13.482;2022-07-17T06:37:34;0.10;;;0.00;;
46216;SDS011;47258;59.424;13.482;2022-07-17T06:40:02;0.00;;;0.00;;
46216;SDS011;47258;59.424;13.482;2022-07-17T06:42:30;0.00;;;0.00;;
46216;SDS011;47258;59.424;13.482;2022-07-17T06:44:57;0.00;;;0.00;;
46216;SDS011;47258;59.424;13.482;2022-07-17T06:47:24;0.10;;;0.10;;
46216;SDS011;47258;59.424;13.482;2022-07-17T06:49:53;1.10;;;0.80;;
46216;SDS011;47258;59.424;13.482;2022-07-17T06:52:19;0.00;;;0.00;;
46216;SDS011;47258;59.424;13.482;2022-07-17T06:54:46;1.45;;;0.00;;
46216;SDS011;47258;59.424;13.482;2022-07-17T06:57:13;0.00;;;0.00;;
46216;SDS011;47258;59.424;13.482;2022-07-17T06:59:40;0.00;;;0.00;;
46216;SDS011;47258;59.424;13.482;2022-07-17T07:02:07;0.08;;;0.08;;
46216;SDS011;47258;59.424;13.482;2022-07-17T07:04:34;0.00;;;0.00;;
46216;SDS011;47258;59.424;13.482;2022-07-17T07:07:03;0.00;;;0.00;;
46216;SDS011;47258;59.424;13.482;2022-07-17T07:09:30;0.28;;;0.28;;
46216;SDS011;47258;59.424;13.482;2022-07-17T07:11:58;0.30;;;0.00;;
46216;SDS011;47258;59.424;13.482;2022-07-17T07:14:25;2.28;;;0.10;;
46216;SDS011;47258;59.424;13.482;2022-07-17T07:16:51;0.00;;;0.00;;
46216;SDS011;47258;59.424;13.482;2022-07-17T07:19:18;0.10;;;0.10;;
46216;SDS011;47258;59.424;13.482;2022-07-17T07:21:45;0.00;;;0.00;;
46216;SDS011;47258;59.424;13.482;2022-07-17T07:24:14;0.00;;;0.00;;
46216;SDS011;47258;59.424;13.482;2022-07-17T07:26:41;0.17;;;0.17;;
46216;SDS011;47258;59.424;13.482;2022-07-17T07:29:08;0.00;;;0.00;;
46216;SDS011;47258;59.424;13.482;2022-07-17T07:31:35;0.00;;;0.00;;
46216;SDS011;47258;59.424;13.482;2022-07-17T07:34:01;0.10;;;0.00;;
46216;SDS011;47258;59.424;13.482;2022-07-17T07:36:29;0.00;;;0.00;;
46216;SDS011;47258;59.424;13.482;2022-07-17T07:38:55;0.05;;;0.05;;
46216;SDS011;47258;59.424;13.482;2022-07-17T07:41:24;0.00;;;0.00;;
46216;SDS011;47258;59.424;13.482;2022-07-17T07:43:51;0.03;;;0.00;;
46216;SDS011;47258;59.424;13.482;2022-07-17T07:46:18;0.00;;;0.00;;
46216;SDS011;47258;59.424;13.482;2022-07-17T07:48:45;0.00;;;0.00;;
46216;SDS011;47258;59.424;13.482;2022-07-17T07:51:12;0.10;;;0.10;;
46216;SDS011;47258;59.424;13.482;2022-07-17T07:53:39;0.00;;;0.00;;
46216;SDS011;47258;59.424;13.482;2022-07-17T07:56:06;0.00;;;0.00;;
46216;SDS011;47258;59.424;13.482;2022-07-17T07:58:34;0.00;;;0.00;;
46216;SDS011;47258;59.424;13.482;2022-07-17T08:01:02;0.00;;;0.00;;
46216;SDS011;47258;59.424;13.482;2022-07-17T08:03:29;0.00;;;0.00;;
46216;SDS011;47258;59.424;13.482;2022-07-17T08:05:56;0.00;;;0.00;;
46216;SDS011;47258;59.424;13.482;2022-07-17T08:08:23;0.00;;;0.00;;
46216;SDS011;47258;59.424;13.482;2022-07-17T08:10:50;0.00;;;0.00;;
46216;SDS011;47258;59.424;13.482;2022-07-17T08:13:17;0.08;;;0.00;;
46216;SDS011;47258;59.424;13.482;2022-07-17T08:15:45;0.00;;;0.00;;
46216;SDS011;47258;59.424;13.482;2022-07-17T08:18:12;0.75;;;0.52;;
46216;SDS011;47258;59.424;13.482;2022-07-17T08:20:39;0.00;;;0.00;;
46216;SDS011;47258;59.424;13.482;2022-07-17T08:23:06;0.52;;;0.00;;
46216;SDS011;47258;59.424;13.482;2022-07-17T08:25:33;0.00;;;0.00;;
46216;SDS011;47258;59.424;13.482;2022-07-17T08:28:01;0.00;;;0.00;;
46216;SDS011;47258;59.424;13.482;2022-07-17T08:30:29;0.05;;;0.05;;
46216;SDS011;47258;59.424;13.482;2022-07-17T08:33:01;0.10;;;0.10;;
46216;SDS011;47258;59.424;13.482;2022-07-17T08:35:28;0.00;;;0.00;;
46216;SDS011;47258;59.424;13.482;2022-07-17T08:37:55;0.00;;;0.00;;
46216;SDS011;47258;59.424;13.482;2022-07-17T08:40:24;0.00;;;0.00;;
46216;SDS011;47258;59.424;13.482;2022-07-17T08:42:52;0.00;;;0.00;;
46216;SDS011;47258;59.424;13.482;2022-07-17T08:45:19;0.00;;;0.00;;
46216;SDS011;47258;59.424;13.482;2022-07-17T08:47:46;0.10;;;0.10;;
46216;SDS011;47258;59.424;13.482;2022-07-17T08:50:18;0.00;;;0.00;;
46216;SDS011;47258;59.424;13.482;2022-07-17T08:52:49;0.00;;;0.00;;
46216;SDS011;47258;59.424;13.482;2022-07-17T08:55:16;0.00;;;0.00;;
46216;SDS011;47258;59.424;13.482;2022-07-17T08:57:44;0.03;;;0.00;;
46216;SDS011;47258;59.424;13.482;2022-07-17T09:00:12;0.00;;;0.00;;
46216;SDS011;47258;59.424;13.482;2022-07-17T09:05:21;0.00;;;0.00;;
46216;SDS011;47258;59.424;13.482;2022-07-17T09:07:49;0.45;;;0.10;;
46216;SDS011;47258;59.424;13.482;2022-07-17T09:10:16;0.00;;;0.00;;
46216;SDS011;47258;59.424;13.482;2022-07-17T09:12:43;2.38;;;0.10;;
46216;SDS011;47258;59.424;13.482;2022-07-17T09:15:14;0.73;;;0.00;;
46216;SDS011;47258;59.424;13.482;2022-07-17T09:17:49;0.20;;;0.10;;
46216;SDS011;47258;59.424;13.482;2022-07-17T09:20:16;0.00;;;0.00;;
46216;SDS011;47258;59.424;13.482;2022-07-17T09:22:46;0.10;;;0.10;;
46216;SDS011;47258;59.424;13.482;2022-07-17T09:25:31;3.40;;;0.10;;
46216;SDS011;47258;59.424;13.482;2022-07-17T09:28:02;0.00;;;0.00;;
46216;SDS011;47258;59.424;13.482;2022-07-17T09:30:30;2.03;;;0.10;;
46216;SDS011;47258;59.424;13.482;2022-07-17T09:32:57;0.03;;;0.00;;
46216;SDS011;47258;59.424;13.482;2022-07-17T09:35:25;0.10;;;0.10;;
46216;SDS011;47258;59.424;13.482;2022-07-17T09:37:54;0.15;;;0.10;;
46216;SDS011;47258;59.424;13.482;2022-07-17T09:40:21;0.30;;;0.30;;
46216;SDS011;47258;59.424;13.482;2022-07-17T09:43:06;0.00;;;0.00;;
46216;SDS011;47258;59.424;13.482;2022-07-17T09:45:34;0.00;;;0.00;;
46216;SDS011;47258;59.424;13.482;2022-07-17T09:48:02;0.30;;;0.10;;
46216;SDS011;47258;59.424;13.482;2022-07-17T09:50:31;0.20;;;0.10;;
46216;SDS011;47258;59.424;13.482;2022-07-17T09:53:00;0.55;;;0.00;;
46216;SDS011;47258;59.424;13.482;2022-07-17T09:55:28;0.10;;;0.00;;
46216;SDS011;47258;59.424;13.482;2022-07-17T09:57:56;2.42;;;0.60;;
46216;SDS011;47258;59.424;13.482;2022-07-17T10:00:26;0.90;;;0.00;;
46216;SDS011;47258;59.424;13.482;2022-07-17T10:02:54;0.73;;;0.13;;
46216;SDS011;47258;59.424;13.482;2022-07-17T10:05:21;0.20;;;0.20;;
46216;SDS011;47258;59.424;13.482;2022-07-17T10:07:48;0.45;;;0.10;;
46216;SDS011;47258;59.424;13.482;2022-07-17T10:10:17;0.20;;;0.08;;
46216;SDS011;47258;59.424;13.482;2022-07-17T10:15:13;0.10;;;0.10;;
46216;SDS011;47258;59.424;13.482;2022-07-17T10:17:41;0.28;;;0.10;;
46216;SDS011;47258;59.424;13.482;2022-07-17T10:20:09;0.25;;;0.25;;
46216;SDS011;47258;59.424;13.482;2022-07-17T10:22:42;0.80;;;0.30;;
46216;SDS011;47258;59.424;13.482;2022-07-17T10:25:12;0.85;;;0.20;;
46216;SDS011;47258;59.424;13.482;2022-07-17T10:27:49;0.57;;;0.30;;
46216;SDS011;47258;59.424;13.482;2022-07-17T10:30:23;0.30;;;0.30;;
46216;SDS011;47258;59.424;13.482;2022-07-17T10:32:52;0.85;;;0.10;;
46216;SDS011;47258;59.424;13.482;2022-07-17T10:35:23;0.40;;;0.40;;
46216;SDS011;47258;59.424;13.482;2022-07-17T10:37:50;0.77;;;0.55;;
46216;SDS011;47258;59.424;13.482;2022-07-17T10:40:18;0.40;;;0.40;;
46216;SDS011;47258;59.424;13.482;2022-07-17T10:45:21;2.55;;;0.30;;
46216;SDS011;47258;59.424;13.482;2022-07-17T10:47:51;2.88;;;0.32;;
46216;SDS011;47258;59.424;13.482;2022-07-17T10:50:21;0.57;;;0.52;;
46216;SDS011;47258;59.424;13.482;2022-07-17T10:53:01;0.47;;;0.30;;
46216;SDS011;47258;59.424;13.482;2022-07-17T10:55:31;0.90;;;0.40;;
46216;SDS011;47258;59.424;13.482;2022-07-17T10:58:00;1.33;;;0.30;;
46216;SDS011;47258;59.424;13.482;2022-07-17T11:00:27;2.50;;;0.40;;
46216;SDS011;47258;59.424;13.482;2022-07-17T11:02:55;2.05;;;0.10;;
46216;SDS011;47258;59.424;13.482;2022-07-17T11:05:22;1.40;;;0.43;;
46216;SDS011;47258;59.424;13.482;2022-07-17T11:07:50;1.45;;;0.40;;
46216;SDS011;47258;59.424;13.482;2022-07-17T11:10:18;0.52;;;0.20;;
46216;SDS011;47258;59.424;13.482;2022-07-17T11:12:45;0.20;;;0.20;;
46216;SDS011;47258;59.424;13.482;2022-07-17T11:15:13;0.63;;;0.22;;
46216;SDS011;47258;59.424;13.482;2022-07-17T11:17:44;1.00;;;0.45;;
46216;SDS011;47258;59.424;13.482;2022-07-17T11:20:12;0.63;;;0.22;;
46216;SDS011;47258;59.424;13.482;2022-07-17T11:22:39;0.20;;;0.20;;
46216;SDS011;47258;59.424;13.482;2022-07-17T11:25:06;0.57;;;0.28;;
46216;SDS011;47258;59.424;13.482;2022-07-17T11:27:35;4.30;;;0.53;;
46216;SDS011;47258;59.424;13.482;2022-07-17T11:30:03;1.25;;;0.30;;
46216;SDS011;47258;59.424;13.482;2022-07-17T11:32:33;4.60;;;0.60;;
46216;SDS011;47258;59.424;13.482;2022-07-17T11:35:01;0.50;;;0.50;;
46216;SDS011;47258;59.424;13.482;2022-07-17T11:37:29;3.03;;;0.30;;
46216;SDS011;47258;59.424;13.482;2022-07-17T11:39:56;0.85;;;0.60;;
46216;SDS011;47258;59.424;13.482;2022-07-17T11:42:24;3.70;;;0.45;;
46216;SDS011;47258;59.424;13.482;2022-07-17T11:44:52;0.50;;;0.50;;
46216;SDS011;47258;59.424;13.482;2022-07-17T11:47:21;0.65;;;0.40;;
46216;SDS011;47258;59.424;13.482;2022-07-17T11:50:03;0.73;;;0.73;;
46216;SDS011;47258;59.424;13.482;2022-07-17T11:52:39;0.52;;;0.40;;
46216;SDS011;47258;59.424;13.482;2022-07-17T11:55:07;0.95;;;0.60;;
46216;SDS011;47258;59.424;13.482;2022-07-17T11:57:41;0.70;;;0.40;;
46216;SDS011;47258;59.424;13.482;2022-07-17T12:00:10;0.35;;;0.35;;
46216;SDS011;47258;59.424;13.482;2022-07-17T12:02:39;0.57;;;0.32;;
46216;SDS011;47258;59.424;13.482;2022-07-17T12:05:07;1.27;;;0.77;;
46216;SDS011;47258;59.424;13.482;2022-07-17T12:07:39;3.13;;;0.60;;
46216;SDS011;47258;59.424;13.482;2022-07-17T12:10:17;4.55;;;0.90;;
46216;SDS011;47258;59.424;13.482;2022-07-17T12:12:54;0.32;;;0.32;;
46216;SDS011;47258;59.424;13.482;2022-07-17T12:15:33;3.72;;;0.80;;
46216;SDS011;47258;59.424;13.482;2022-07-17T12:18:01;18.55;;;1.13;;
46216;SDS011;47258;59.424;13.482;2022-07-17T12:20:41;0.65;;;0.30;;
46216;SDS011;47258;59.424;13.482;2022-07-17T12:23:09;0.65;;;0.60;;
46216;SDS011;47258;59.424;13.482;2022-07-17T12:25:51;2.67;;;0.47;;
46216;SDS011;47258;59.424;13.482;2022-07-17T12:28:28;1.58;;;0.73;;
46216;SDS011;47258;59.424;13.482;2022-07-17T12:30:55;0.47;;;0.45;;
46216;SDS011;47258;59.424;13.482;2022-07-17T12:33:22;0.35;;;0.35;;
46216;SDS011;47258;59.424;13.482;2022-07-17T12:35:50;0.40;;;0.40;;
46216;SDS011;47258;59.424;13.482;2022-07-17T12:38:17;0.50;;;0.50;;
46216;SDS011;47258;59.424;13.482;2022-07-17T12:40:44;0.60;;;0.38;;
46216;SDS011;47258;59.424;13.482;2022-07-17T12:43:11;4.15;;;0.57;;
46216;SDS011;47258;59.424;13.482;2022-07-17T12:45:39;1.17;;;0.45;;
46216;SDS011;47258;59.424;13.482;2022-07-17T12:48:06;1.55;;;0.38;;
46216;SDS011;47258;59.424;13.482;2022-07-17T12:50:33;1.33;;;0.68;;
46216;SDS011;47258;59.424;13.482;2022-07-17T12:53:01;0.70;;;0.70;;
46216;SDS011;47258;59.424;13.482;2022-07-17T12:55:28;1.05;;;0.70;;
46216;SDS011;47258;59.424;13.482;2022-07-17T12:57:55;1.80;;;0.70;;
46216;SDS011;47258;59.424;13.482;2022-07-17T13:00:22;0.38;;;0.38;;
46216;SDS011;47258;59.424;13.482;2022-07-17T13:02:49;1.40;;;0.63;;
46216;SDS011;47258;59.424;13.482;2022-07-17T13:05:16;0.50;;;0.40;;
46216;SDS011;47258;59.424;13.482;2022-07-17T13:07:43;0.38;;;0.30;;
46216;SDS011;47258;59.424;13.482;2022-07-17T13:10:12;2.85;;;0.50;;
46216;SDS011;47258;59.424;13.482;2022-07-17T13:12:39;0.30;;;0.30;;
46216;SDS011;47258;59.424;13.482;2022-07-17T13:15:06;0.55;;;0.40;;
46216;SDS011;47258;59.424;13.482;2022-07-17T13:17:34;2.30;;;0.38;;
46216;SDS011;47258;59.424;13.482;2022-07-17T13:20:03;0.40;;;0.40;;
46216;SDS011;47258;59.424;13.482;2022-07-17T13:22:30;1.95;;;0.73;;
46216;SDS011;47258;59.424;13.482;2022-07-17T13:24:57;0.75;;;0.60;;
46216;SDS011;47258;59.424;13.482;2022-07-17T13:27:26;0.90;;;0.30;;
46216;SDS011;47258;59.424;13.482;2022-07-17T13:29:53;1.77;;;0.90;;
46216;SDS011;47258;59.424;13.482;2022-07-17T13:32:20;2.72;;;0.32;;
46216;SDS011;47258;59.424;13.482;2022-07-17T13:34:47;0.75;;;0.45;;
46216;SDS011;47258;59.424;13.482;2022-07-17T13:37:14;1.75;;;0.90;;
46216;SDS011;47258;59.424;13.482;2022-07-17T13:39:41;3.72;;;2.22;;
46216;SDS011;47258;59.424;13.482;2022-07-17T13:42:08;2.45;;;2.25;;
46216;SDS011;47258;59.424;13.482;2022-07-17T13:44:37;2.85;;;2.65;;
46216;SDS011;47258;59.424;13.482;2022-07-17T13:47:04;3.75;;;2.30;;
46216;SDS011;47258;59.424;13.482;2022-07-17T13:49:30;2.10;;;1.80;;
46216;SDS011;47258;59.424;13.482;2022-07-17T13:51:57;1.50;;;1.40;;
46216;SDS011;47258;59.424;13.482;2022-07-17T13:54:25;2.20;;;2.10;;
46216;SDS011;47258;59.424;13.482;2022-07-17T13:56:52;2.83;;;2.58;;
46216;SDS011;47258;59.424;13.482;2022-07-17T13:59:19;3.05;;;2.75;;
46216;SDS011;47258;59.424;13.482;2022-07-17T14:01:47;1.58;;;1.58;;
46216;SDS011;47258;59.424;13.482;2022-07-17T14:04:14;0.80;;;0.80;;
46216;SDS011;47258;59.424;13.482;2022-07-17T14:06:41;0.30;;;0.30;;
46216;SDS011;47258;59.424;13.482;2022-07-17T14:09:09;1.17;;;0.70;;
46216;SDS011;47258;59.424;13.482;2022-07-17T14:11:36;0.52;;;0.50;;
46216;SDS011;47258;59.424;13.482;2022-07-17T14:14:03;2.58;;;0.88;;
46216;SDS011;47258;59.424;13.482;2022-07-17T14:16:30;0.40;;;0.40;;
46216;SDS011;47258;59.424;13.482;2022-07-17T14:18:59;2.85;;;0.73;;
46216;SDS011;47258;59.424;13.482;2022-07-17T14:21:26;0.30;;;0.30;;
46216;SDS011;47258;59.424;13.482;2022-07-17T14:23:53;0.93;;;0.47;;
46216;SDS011;47258;59.424;13.482;2022-07-17T14:26:20;0.45;;;0.40;;
46216;SDS011;47258;59.424;13.482;2022-07-17T14:28:47;0.47;;;0.43;;
46216;SDS011;47258;59.424;13.482;2022-07-17T14:31:14;1.38;;;0.70;;
46216;SDS011;47258;59.424;13.482;2022-07-17T14:33:41;0.95;;;0.75;;
46216;SDS011;47258;59.424;13.482;2022-07-17T14:36:09;1.25;;;0.40;;
46216;SDS011;47258;59.424;13.482;2022-07-17T14:38:37;1.17;;;0.37;;
46216;SDS011;47258;59.424;13.482;2022-07-17T14:41:04;1.35;;;0.93;;
46216;SDS011;47258;59.424;13.482;2022-07-17T14:43:31;0.40;;;0.40;;
46216;SDS011;47258;59.424;13.482;2022-07-17T14:45:58;0.47;;;0.43;;